sensor_id;sensor_type;location;lat;lon;timestamp;P1;durP1;ratioP1;P2;durP2;ratioP2
6306;SDS011;3186;54.062;9.962;2023-06-10T00:01:52;6.80;;;4.20;;
6306;SDS011;3186;54.062;9.962;2023-06-10T00:04:21;13.07;;;3.80;;
6306;SDS011;3186;54.062;9.962;2023-06-10T00:06:48;7.40;;;3.50;;
6306;SDS011;3186;54.062;9.962;2023-06-10T00:09:14;5.50;;;3.73;;
6306;SDS011;3186;54.062;9.962;2023-06-10T00:11:41;9.73;;;3.73;;
6306;SDS011;3186;54.062;9.962;2023-06-10T00:14:07;6.93;;;3.90;;
6306;SDS011;3186;54.062;9.962;2023-06-10T00:16:33;6.43;;;3.97;;
6306;SDS011;3186;54.062;9.962;2023-06-10T00:19:00;6.00;;;3.40;;
6306;SDS011;3186;54.062;9.962;2023-06-10T00:21:27;6.70;;;3.47;;
6306;SDS011;3186;54.062;9.962;2023-06-10T00:23:53;6.87;;;3.83;;
6306;SDS011;3186;54.062;9.962;2023-06-10T00:26:21;7.50;;;3.40;;
6306;SDS011;3186;54.062;9.962;2023-06-10T00:28:47;5.43;;;3.83;;
6306;SDS011;3186;54.062;9.962;2023-06-10T00:31:13;7.23;;;3.70;;
6306;SDS011;3186;54.062;9.962;2023-06-10T00:33:40;6.57;;;3.90;;
6306;SDS011;3186;54.062;9.962;2023-06-10T00:36:05;9.37;;;4.10;;
6306;SDS011;3186;54.062;9.962;2023-06-10T00:38:31;7.40;;;3.40;;
6306;SDS011;3186;54.062;9.962;2023-06-10T00:40:57;6.10;;;3.40;;
6306;SDS011;3186;54.062;9.962;2023-06-10T00:43:23;8.17;;;3.50;;
6306;SDS011;3186;54.062;9.962;2023-06-10T00:45:49;8.43;;;3.70;;
6306;SDS011;3186;54.062;9.962;2023-06-10T00:48:16;6.53;;;3.80;;
6306;SDS011;3186;54.062;9.962;2023-06-10T00:50:42;4.27;;;3.27;;
6306;SDS011;3186;54.062;9.962;2023-06-10T00:53:08;5.10;;;3.10;;
6306;SDS011;3186;54.062;9.962;2023-06-10T00:55:35;6.93;;;3.53;;
6306;SDS011;3186;54.062;9.962;2023-06-10T00:58:02;7.63;;;3.37;;
6306;SDS011;3186;54.062;9.962;2023-06-10T01:00:29;6.87;;;3.60;;
6306;SDS011;3186;54.062;9.962;2023-06-10T01:02:55;5.07;;;3.27;;
6306;SDS011;3186;54.062;9.962;2023-06-10T01:05:21;6.27;;;3.53;;
6306;SDS011;3186;54.062;9.962;2023-06-10T01:10:36;8.07;;;3.00;;
6306;SDS011;3186;54.062;9.962;2023-06-10T01:13:07;6.57;;;3.57;;
6306;SDS011;3186;54.062;9.962;2023-06-10T01:15:37;6.63;;;3.27;;
6306;SDS011;3186;54.062;9.962;2023-06-10T01:18:05;4.37;;;3.33;;
6306;SDS011;3186;54.062;9.962;2023-06-10T01:20:40;9.87;;;3.23;;
6306;SDS011;3186;54.062;9.962;2023-06-10T01:23:11;7.33;;;3.20;;
6306;SDS011;3186;54.062;9.962;2023-06-10T01:26:19;5.60;;;3.00;;
6306;SDS011;3186;54.062;9.962;2023-06-10T01:28:31;5.87;;;3.17;;
6306;SDS011;3186;54.062;9.962;2023-06-10T01:31:03;8.67;;;3.23;;
6306;SDS011;3186;54.062;9.962;2023-06-10T01:33:43;6.17;;;3.07;;
6306;SDS011;3186;54.062;9.962;2023-06-10T01:36:13;4.00;;;2.77;;
6306;SDS011;3186;54.062;9.962;2023-06-10T01:38:43;4.27;;;3.20;;
6306;SDS011;3186;54.062;9.962;2023-06-10T01:41:10;4.43;;;2.87;;
6306;SDS011;3186;54.062;9.962;2023-06-10T01:43:39;6.03;;;3.50;;
6306;SDS011;3186;54.062;9.962;2023-06-10T01:46:06;6.77;;;2.73;;
6306;SDS011;3186;54.062;9.962;2023-06-10T01:48:35;6.50;;;2.80;;
6306;SDS011;3186;54.062;9.962;2023-06-10T01:51:02;4.33;;;2.80;;
6306;SDS011;3186;54.062;9.962;2023-06-10T01:53:28;5.60;;;3.17;;
6306;SDS011;3186;54.062;9.962;2023-06-10T01:55:54;5.87;;;3.00;;
6306;SDS011;3186;54.062;9.962;2023-06-10T01:58:20;3.97;;;2.80;;
6306;SDS011;3186;54.062;9.962;2023-06-10T02:00:45;9.07;;;2.90;;
6306;SDS011;3186;54.062;9.962;2023-06-10T02:03:11;6.93;;;3.03;;
6306;SDS011;3186;54.062;9.962;2023-06-10T02:05:37;4.23;;;2.97;;
6306;SDS011;3186;54.062;9.962;2023-06-10T02:08:04;6.77;;;2.70;;
6306;SDS011;3186;54.062;9.962;2023-06-10T02:10:30;8.20;;;3.47;;
6306;SDS011;3186;54.062;9.962;2023-06-10T02:12:56;4.63;;;2.83;;
6306;SDS011;3186;54.062;9.962;2023-06-10T02:15:21;6.57;;;3.00;;
6306;SDS011;3186;54.062;9.962;2023-06-10T02:17:47;6.10;;;2.57;;
6306;SDS011;3186;54.062;9.962;2023-06-10T02:20:14;6.13;;;3.00;;
6306;SDS011;3186;54.062;9.962;2023-06-10T02:22:40;7.23;;;2.90;;
6306;SDS011;3186;54.062;9.962;2023-06-10T02:25:07;3.90;;;2.60;;
6306;SDS011;3186;54.062;9.962;2023-06-10T02:27:33;8.10;;;3.13;;
6306;SDS011;3186;54.062;9.962;2023-06-10T02:29:59;4.33;;;2.70;;
6306;SDS011;3186;54.062;9.962;2023-06-10T02:32:25;4.97;;;2.70;;
6306;SDS011;3186;54.062;9.962;2023-06-10T02:34:52;3.77;;;2.83;;
6306;SDS011;3186;54.062;9.962;2023-06-10T02:37:21;7.50;;;2.80;;
6306;SDS011;3186;54.062;9.962;2023-06-10T02:39:46;4.63;;;2.37;;
6306;SDS011;3186;54.062;9.962;2023-06-10T02:42:12;6.57;;;2.90;;
6306;SDS011;3186;54.062;9.962;2023-06-10T02:44:38;7.53;;;2.80;;
6306;SDS011;3186;54.062;9.962;2023-06-10T02:47:08;11.17;;;2.87;;
6306;SDS011;3186;54.062;9.962;2023-06-10T02:49:35;8.93;;;2.63;;
6306;SDS011;3186;54.062;9.962;2023-06-10T02:52:02;5.93;;;2.67;;
6306;SDS011;3186;54.062;9.962;2023-06-10T02:54:28;10.97;;;2.77;;
6306;SDS011;3186;54.062;9.962;2023-06-10T02:56:56;3.33;;;2.50;;
6306;SDS011;3186;54.062;9.962;2023-06-10T02:59:25;10.43;;;3.17;;
6306;SDS011;3186;54.062;9.962;2023-06-10T03:01:54;6.10;;;3.30;;
6306;SDS011;3186;54.062;9.962;2023-06-10T03:04:21;3.97;;;2.30;;
6306;SDS011;3186;54.062;9.962;2023-06-10T03:06:57;6.77;;;2.90;;
6306;SDS011;3186;54.062;9.962;2023-06-10T03:09:30;3.30;;;2.33;;
6306;SDS011;3186;54.062;9.962;2023-06-10T03:11:58;5.03;;;3.20;;
6306;SDS011;3186;54.062;9.962;2023-06-10T03:14:25;5.17;;;2.43;;
6306;SDS011;3186;54.062;9.962;2023-06-10T03:16:51;9.50;;;2.77;;
6306;SDS011;3186;54.062;9.962;2023-06-10T03:19:19;5.40;;;2.73;;
6306;SDS011;3186;54.062;9.962;2023-06-10T03:21:57;5.87;;;2.50;;
6306;SDS011;3186;54.062;9.962;2023-06-10T03:24:32;6.57;;;2.90;;
6306;SDS011;3186;54.062;9.962;2023-06-10T03:26:58;5.40;;;2.50;;
6306;SDS011;3186;54.062;9.962;2023-06-10T03:29:24;7.20;;;2.60;;
6306;SDS011;3186;54.062;9.962;2023-06-10T03:31:50;7.43;;;2.57;;
6306;SDS011;3186;54.062;9.962;2023-06-10T03:34:16;6.93;;;2.77;;
6306;SDS011;3186;54.062;9.962;2023-06-10T03:36:42;5.37;;;2.40;;
6306;SDS011;3186;54.062;9.962;2023-06-10T03:39:08;5.33;;;2.60;;
6306;SDS011;3186;54.062;9.962;2023-06-10T03:41:36;6.23;;;2.70;;
6306;SDS011;3186;54.062;9.962;2023-06-10T03:44:02;4.50;;;2.40;;
6306;SDS011;3186;54.062;9.962;2023-06-10T03:46:29;6.83;;;2.50;;
6306;SDS011;3186;54.062;9.962;2023-06-10T03:48:55;7.53;;;2.33;;
6306;SDS011;3186;54.062;9.962;2023-06-10T03:51:21;6.13;;;2.80;;
6306;SDS011;3186;54.062;9.962;2023-06-10T03:53:48;4.63;;;2.70;;
6306;SDS011;3186;54.062;9.962;2023-06-10T03:56:14;4.07;;;2.30;;
6306;SDS011;3186;54.062;9.962;2023-06-10T03:58:40;5.07;;;2.67;;
6306;SDS011;3186;54.062;9.962;2023-06-10T04:01:06;8.23;;;2.90;;
6306;SDS011;3186;54.062;9.962;2023-06-10T04:03:34;6.67;;;2.50;;
6306;SDS011;3186;54.062;9.962;2023-06-10T04:06:00;4.13;;;2.00;;
6306;SDS011;3186;54.062;9.962;2023-06-10T04:08:26;6.37;;;2.50;;
6306;SDS011;3186;54.062;9.962;2023-06-10T04:10:53;6.20;;;2.77;;
6306;SDS011;3186;54.062;9.962;2023-06-10T04:13:19;5.40;;;2.40;;
6306;SDS011;3186;54.062;9.962;2023-06-10T04:15:52;7.67;;;2.50;;
6306;SDS011;3186;54.062;9.962;2023-06-10T04:18:20;4.30;;;2.60;;
6306;SDS011;3186;54.062;9.962;2023-06-10T04:20:47;5.13;;;2.53;;
6306;SDS011;3186;54.062;9.962;2023-06-10T04:23:13;4.53;;;2.33;;
6306;SDS011;3186;54.062;9.962;2023-06-10T04:25:41;5.60;;;2.70;;
6306;SDS011;3186;54.062;9.962;2023-06-10T04:28:07;8.13;;;3.03;;
6306;SDS011;3186;54.062;9.962;2023-06-10T04:30:35;5.43;;;2.60;;
6306;SDS011;3186;54.062;9.962;2023-06-10T04:33:01;4.67;;;2.50;;
6306;SDS011;3186;54.062;9.962;2023-06-10T04:35:27;6.63;;;2.70;;
6306;SDS011;3186;54.062;9.962;2023-06-10T04:37:54;4.43;;;2.37;;
6306;SDS011;3186;54.062;9.962;2023-06-10T04:40:20;6.43;;;2.73;;
6306;SDS011;3186;54.062;9.962;2023-06-10T04:42:47;6.73;;;2.20;;
6306;SDS011;3186;54.062;9.962;2023-06-10T04:45:12;6.03;;;2.43;;
6306;SDS011;3186;54.062;9.962;2023-06-10T04:47:39;5.47;;;2.43;;
6306;SDS011;3186;54.062;9.962;2023-06-10T04:50:06;9.20;;;3.03;;
6306;SDS011;3186;54.062;9.962;2023-06-10T04:52:32;7.63;;;2.50;;
6306;SDS011;3186;54.062;9.962;2023-06-10T04:54:59;5.83;;;2.50;;
6306;SDS011;3186;54.062;9.962;2023-06-10T04:57:25;6.70;;;2.73;;
6306;SDS011;3186;54.062;9.962;2023-06-10T04:59:52;3.07;;;1.80;;
6306;SDS011;3186;54.062;9.962;2023-06-10T05:02:18;7.23;;;2.87;;
6306;SDS011;3186;54.062;9.962;2023-06-10T05:04:44;10.00;;;2.73;;
6306;SDS011;3186;54.062;9.962;2023-06-10T05:07:10;3.77;;;2.43;;
6306;SDS011;3186;54.062;9.962;2023-06-10T05:09:35;5.63;;;2.23;;
6306;SDS011;3186;54.062;9.962;2023-06-10T05:12:02;8.03;;;2.80;;
6306;SDS011;3186;54.062;9.962;2023-06-10T05:14:29;4.37;;;2.57;;
6306;SDS011;3186;54.062;9.962;2023-06-10T05:16:54;2.90;;;2.00;;
6306;SDS011;3186;54.062;9.962;2023-06-10T05:19:20;5.03;;;2.33;;
6306;SDS011;3186;54.062;9.962;2023-06-10T05:21:47;5.87;;;2.67;;
6306;SDS011;3186;54.062;9.962;2023-06-10T05:24:13;5.63;;;2.50;;
6306;SDS011;3186;54.062;9.962;2023-06-10T05:26:39;8.80;;;2.43;;
6306;SDS011;3186;54.062;9.962;2023-06-10T05:29:08;6.67;;;2.70;;
6306;SDS011;3186;54.062;9.962;2023-06-10T05:31:36;5.93;;;2.60;;
6306;SDS011;3186;54.062;9.962;2023-06-10T05:34:02;5.50;;;2.30;;
6306;SDS011;3186;54.062;9.962;2023-06-10T05:36:28;4.03;;;2.27;;
6306;SDS011;3186;54.062;9.962;2023-06-10T05:38:53;8.77;;;2.50;;
6306;SDS011;3186;54.062;9.962;2023-06-10T05:41:19;9.63;;;2.70;;
6306;SDS011;3186;54.062;9.962;2023-06-10T05:43:47;8.40;;;2.97;;
6306;SDS011;3186;54.062;9.962;2023-06-10T05:46:13;3.67;;;2.43;;
6306;SDS011;3186;54.062;9.962;2023-06-10T05:48:40;5.10;;;2.30;;
6306;SDS011;3186;54.062;9.962;2023-06-10T05:51:06;6.90;;;2.57;;
6306;SDS011;3186;54.062;9.962;2023-06-10T05:53:32;8.60;;;3.00;;
6306;SDS011;3186;54.062;9.962;2023-06-10T05:55:58;5.93;;;2.47;;
6306;SDS011;3186;54.062;9.962;2023-06-10T05:58:24;5.37;;;2.00;;
6306;SDS011;3186;54.062;9.962;2023-06-10T06:00:50;4.50;;;2.50;;
6306;SDS011;3186;54.062;9.962;2023-06-10T06:03:16;6.57;;;2.50;;
6306;SDS011;3186;54.062;9.962;2023-06-10T06:05:42;6.63;;;2.40;;
6306;SDS011;3186;54.062;9.962;2023-06-10T06:08:09;9.00;;;2.70;;
6306;SDS011;3186;54.062;9.962;2023-06-10T06:10:35;4.90;;;2.23;;
6306;SDS011;3186;54.062;9.962;2023-06-10T06:13:01;6.33;;;2.80;;
6306;SDS011;3186;54.062;9.962;2023-06-10T06:15:27;5.83;;;2.40;;
6306;SDS011;3186;54.062;9.962;2023-06-10T06:17:53;9.10;;;2.73;;
6306;SDS011;3186;54.062;9.962;2023-06-10T06:20:21;4.37;;;2.73;;
6306;SDS011;3186;54.062;9.962;2023-06-10T06:22:48;9.73;;;2.67;;
6306;SDS011;3186;54.062;9.962;2023-06-10T06:25:14;8.97;;;2.53;;
6306;SDS011;3186;54.062;9.962;2023-06-10T06:27:40;5.60;;;2.43;;
6306;SDS011;3186;54.062;9.962;2023-06-10T06:30:06;4.07;;;2.37;;
6306;SDS011;3186;54.062;9.962;2023-06-10T06:32:32;5.17;;;2.33;;
6306;SDS011;3186;54.062;9.962;2023-06-10T06:34:58;10.57;;;2.73;;
6306;SDS011;3186;54.062;9.962;2023-06-10T06:37:25;7.37;;;2.07;;
6306;SDS011;3186;54.062;9.962;2023-06-10T06:40:00;4.33;;;2.30;;
6306;SDS011;3186;54.062;9.962;2023-06-10T06:42:26;7.70;;;3.00;;
6306;SDS011;3186;54.062;9.962;2023-06-10T06:45:00;5.73;;;2.40;;
6306;SDS011;3186;54.062;9.962;2023-06-10T06:47:26;3.90;;;2.40;;
6306;SDS011;3186;54.062;9.962;2023-06-10T06:49:51;7.47;;;2.80;;
6306;SDS011;3186;54.062;9.962;2023-06-10T06:52:17;4.93;;;2.80;;
6306;SDS011;3186;54.062;9.962;2023-06-10T06:54:44;9.87;;;3.03;;
6306;SDS011;3186;54.062;9.962;2023-06-10T06:57:10;5.90;;;2.50;;
6306;SDS011;3186;54.062;9.962;2023-06-10T06:59:36;6.63;;;2.73;;
6306;SDS011;3186;54.062;9.962;2023-06-10T07:02:02;6.53;;;2.67;;
6306;SDS011;3186;54.062;9.962;2023-06-10T07:04:28;4.47;;;2.33;;
6306;SDS011;3186;54.062;9.962;2023-06-10T07:06:55;5.50;;;2.73;;
6306;SDS011;3186;54.062;9.962;2023-06-10T07:09:21;3.97;;;2.37;;
6306;SDS011;3186;54.062;9.962;2023-06-10T07:11:47;7.90;;;3.00;;
6306;SDS011;3186;54.062;9.962;2023-06-10T07:14:12;11.77;;;2.63;;
6306;SDS011;3186;54.062;9.962;2023-06-10T07:16:38;6.57;;;2.47;;
6306;SDS011;3186;54.062;9.962;2023-06-10T07:19:04;5.87;;;2.57;;
6306;SDS011;3186;54.062;9.962;2023-06-10T07:21:30;6.77;;;2.80;;
6306;SDS011;3186;54.062;9.962;2023-06-10T07:23:57;8.77;;;3.00;;
6306;SDS011;3186;54.062;9.962;2023-06-10T07:26:23;5.23;;;2.70;;
6306;SDS011;3186;54.062;9.962;2023-06-10T07:28:49;11.70;;;3.07;;
6306;SDS011;3186;54.062;9.962;2023-06-10T07:31:15;9.30;;;3.13;;
6306;SDS011;3186;54.062;9.962;2023-06-10T07:33:40;5.60;;;2.83;;
6306;SDS011;3186;54.062;9.962;2023-06-10T07:36:06;9.03;;;2.80;;
6306;SDS011;3186;54.062;9.962;2023-06-10T07:38:32;9.83;;;3.17;;
6306;SDS011;3186;54.062;9.962;2023-06-10T07:40:59;6.37;;;2.83;;
6306;SDS011;3186;54.062;9.962;2023-06-10T07:43:25;6.37;;;2.87;;
6306;SDS011;3186;54.062;9.962;2023-06-10T07:45:51;5.80;;;3.40;;
6306;SDS011;3186;54.062;9.962;2023-06-10T07:48:17;6.83;;;3.00;;
6306;SDS011;3186;54.062;9.962;2023-06-10T07:50:43;6.33;;;2.83;;
6306;SDS011;3186;54.062;9.962;2023-06-10T07:53:08;7.23;;;2.80;;
6306;SDS011;3186;54.062;9.962;2023-06-10T07:55:34;5.40;;;2.70;;
6306;SDS011;3186;54.062;9.962;2023-06-10T07:58:00;7.37;;;2.93;;
6306;SDS011;3186;54.062;9.962;2023-06-10T08:00:26;6.23;;;3.00;;
6306;SDS011;3186;54.062;9.962;2023-06-10T08:02:52;4.67;;;3.07;;
6306;SDS011;3186;54.062;9.962;2023-06-10T08:05:18;7.47;;;3.13;;
6306;SDS011;3186;54.062;9.962;2023-06-10T08:07:44;8.23;;;2.93;;
6306;SDS011;3186;54.062;9.962;2023-06-10T08:10:10;6.27;;;3.20;;
6306;SDS011;3186;54.062;9.962;2023-06-10T08:12:36;6.90;;;2.77;;
6306;SDS011;3186;54.062;9.962;2023-06-10T08:15:03;11.27;;;2.80;;
6306;SDS011;3186;54.062;9.962;2023-06-10T08:17:29;7.60;;;3.40;;
6306;SDS011;3186;54.062;9.962;2023-06-10T08:19:55;12.23;;;3.30;;
6306;SDS011;3186;54.062;9.962;2023-06-10T08:22:21;6.50;;;2.73;;
6306;SDS011;3186;54.062;9.962;2023-06-10T08:24:47;10.93;;;2.83;;
6306;SDS011;3186;54.062;9.962;2023-06-10T08:27:13;7.27;;;3.40;;
6306;SDS011;3186;54.062;9.962;2023-06-10T08:29:39;8.40;;;3.00;;
6306;SDS011;3186;54.062;9.962;2023-06-10T08:32:06;6.50;;;2.93;;
6306;SDS011;3186;54.062;9.962;2023-06-10T08:34:33;9.10;;;3.13;;
6306;SDS011;3186;54.062;9.962;2023-06-10T08:37:00;6.30;;;3.33;;
6306;SDS011;3186;54.062;9.962;2023-06-10T08:39:27;11.80;;;3.13;;
6306;SDS011;3186;54.062;9.962;2023-06-10T08:42:14;9.53;;;3.57;;
6306;SDS011;3186;54.062;9.962;2023-06-10T08:44:41;8.53;;;3.13;;
6306;SDS011;3186;54.062;9.962;2023-06-10T08:47:14;5.63;;;2.93;;
6306;SDS011;3186;54.062;9.962;2023-06-10T08:49:42;10.53;;;3.50;;
6306;SDS011;3186;54.062;9.962;2023-06-10T08:52:16;10.27;;;3.10;;
6306;SDS011;3186;54.062;9.962;2023-06-10T08:54:45;6.80;;;3.23;;
6306;SDS011;3186;54.062;9.962;2023-06-10T08:57:24;6.63;;;3.67;;
6306;SDS011;3186;54.062;9.962;2023-06-10T08:59:51;9.43;;;3.50;;
6306;SDS011;3186;54.062;9.962;2023-06-10T09:02:18;10.70;;;3.40;;
6306;SDS011;3186;54.062;9.962;2023-06-10T09:04:46;5.50;;;3.13;;
6306;SDS011;3186;54.062;9.962;2023-06-10T09:07:13;7.37;;;3.37;;
6306;SDS011;3186;54.062;9.962;2023-06-10T09:09:41;9.90;;;3.57;;
6306;SDS011;3186;54.062;9.962;2023-06-10T09:12:08;5.67;;;3.20;;
6306;SDS011;3186;54.062;9.962;2023-06-10T09:14:34;6.90;;;3.47;;
6306;SDS011;3186;54.062;9.962;2023-06-10T09:17:01;6.10;;;3.60;;
6306;SDS011;3186;54.062;9.962;2023-06-10T09:19:27;7.53;;;3.37;;
6306;SDS011;3186;54.062;9.962;2023-06-10T09:21:54;10.30;;;3.13;;
6306;SDS011;3186;54.062;9.962;2023-06-10T09:24:23;11.40;;;3.27;;
6306;SDS011;3186;54.062;9.962;2023-06-10T09:26:49;7.63;;;2.90;;
6306;SDS011;3186;54.062;9.962;2023-06-10T09:29:16;7.57;;;3.40;;
6306;SDS011;3186;54.062;9.962;2023-06-10T09:31:43;7.53;;;3.17;;
6306;SDS011;3186;54.062;9.962;2023-06-10T09:34:13;7.27;;;3.87;;
6306;SDS011;3186;54.062;9.962;2023-06-10T09:36:40;7.77;;;3.33;;
6306;SDS011;3186;54.062;9.962;2023-06-10T09:39:16;8.03;;;3.10;;
6306;SDS011;3186;54.062;9.962;2023-06-10T09:41:43;9.37;;;3.20;;
6306;SDS011;3186;54.062;9.962;2023-06-10T09:46:40;6.57;;;3.40;;
6306;SDS011;3186;54.062;9.962;2023-06-10T09:49:07;8.00;;;3.30;;
6306;SDS011;3186;54.062;9.962;2023-06-10T09:51:33;8.27;;;3.40;;
6306;SDS011;3186;54.062;9.962;2023-06-10T09:53:59;12.60;;;3.30;;
6306;SDS011;3186;54.062;9.962;2023-06-10T09:56:34;9.80;;;3.17;;
6306;SDS011;3186;54.062;9.962;2023-06-10T09:59:01;4.93;;;3.10;;
6306;SDS011;3186;54.062;9.962;2023-06-10T10:01:28;7.53;;;2.97;;
6306;SDS011;3186;54.062;9.962;2023-06-10T10:03:56;4.67;;;3.17;;
6306;SDS011;3186;54.062;9.962;2023-06-10T10:06:21;6.37;;;3.43;;
6306;SDS011;3186;54.062;9.962;2023-06-10T10:08:48;7.70;;;3.47;;
6306;SDS011;3186;54.062;9.962;2023-06-10T10:11:19;6.80;;;3.43;;
6306;SDS011;3186;54.062;9.962;2023-06-10T10:13:47;6.63;;;3.53;;
6306;SDS011;3186;54.062;9.962;2023-06-10T10:16:15;8.60;;;3.87;;
6306;SDS011;3186;54.062;9.962;2023-06-10T10:18:45;7.70;;;3.50;;
6306;SDS011;3186;54.062;9.962;2023-06-10T10:21:19;10.63;;;3.33;;
6306;SDS011;3186;54.062;9.962;2023-06-10T10:26:23;9.37;;;3.77;;
6306;SDS011;3186;54.062;9.962;2023-06-10T10:28:53;6.73;;;3.47;;
6306;SDS011;3186;54.062;9.962;2023-06-10T10:31:41;5.57;;;3.67;;
6306;SDS011;3186;54.062;9.962;2023-06-10T10:34:12;6.20;;;3.10;;
6306;SDS011;3186;54.062;9.962;2023-06-10T10:36:42;5.63;;;3.43;;
6306;SDS011;3186;54.062;9.962;2023-06-10T10:39:08;9.30;;;3.83;;
6306;SDS011;3186;54.062;9.962;2023-06-10T10:41:34;5.87;;;3.27;;
6306;SDS011;3186;54.062;9.962;2023-06-10T10:44:03;9.33;;;3.57;;
6306;SDS011;3186;54.062;9.962;2023-06-10T10:46:41;10.30;;;3.87;;
6306;SDS011;3186;54.062;9.962;2023-06-10T10:49:14;7.70;;;3.80;;
6306;SDS011;3186;54.062;9.962;2023-06-10T10:51:53;9.40;;;4.07;;
6306;SDS011;3186;54.062;9.962;2023-06-10T10:54:27;9.37;;;3.13;;
6306;SDS011;3186;54.062;9.962;2023-06-10T11:05:14;7.13;;;3.40;;
6306;SDS011;3186;54.062;9.962;2023-06-10T11:07:41;6.90;;;3.73;;
6306;SDS011;3186;54.062;9.962;2023-06-10T11:10:18;6.20;;;3.60;;
6306;SDS011;3186;54.062;9.962;2023-06-10T11:12:57;7.80;;;3.67;;
6306;SDS011;3186;54.062;9.962;2023-06-10T11:15:24;7.17;;;3.80;;
6306;SDS011;3186;54.062;9.962;2023-06-10T11:26:12;6.03;;;3.63;;
6306;SDS011;3186;54.062;9.962;2023-06-10T11:31:26;8.27;;;3.57;;
6306;SDS011;3186;54.062;9.962;2023-06-10T11:36:24;7.57;;;4.20;;
6306;SDS011;3186;54.062;9.962;2023-06-10T11:38:54;9.20;;;4.10;;
6306;SDS011;3186;54.062;9.962;2023-06-10T11:41:24;7.47;;;3.93;;
6306;SDS011;3186;54.062;9.962;2023-06-10T11:43:52;8.50;;;3.97;;
6306;SDS011;3186;54.062;9.962;2023-06-10T11:46:19;6.93;;;3.23;;
6306;SDS011;3186;54.062;9.962;2023-06-10T11:48:51;9.93;;;4.00;;
6306;SDS011;3186;54.062;9.962;2023-06-10T11:51:18;10.47;;;3.87;;
6306;SDS011;3186;54.062;9.962;2023-06-10T11:53:45;9.03;;;3.93;;
6306;SDS011;3186;54.062;9.962;2023-06-10T11:56:19;9.93;;;3.80;;
6306;SDS011;3186;54.062;9.962;2023-06-10T11:58:53;10.53;;;4.30;;
6306;SDS011;3186;54.062;9.962;2023-06-10T12:01:29;5.50;;;3.17;;
6306;SDS011;3186;54.062;9.962;2023-06-10T12:04:06;8.37;;;3.67;;
6306;SDS011;3186;54.062;9.962;2023-06-10T12:06:43;8.93;;;3.80;;
6306;SDS011;3186;54.062;9.962;2023-06-10T12:09:20;8.03;;;3.73;;
6306;SDS011;3186;54.062;9.962;2023-06-10T12:11:57;5.60;;;3.73;;
6306;SDS011;3186;54.062;9.962;2023-06-10T12:20:09;4.90;;;2.93;;
6306;SDS011;3186;54.062;9.962;2023-06-10T12:22:50;10.77;;;4.23;;
6306;SDS011;3186;54.062;9.962;2023-06-10T12:25:16;7.87;;;3.67;;
6306;SDS011;3186;54.062;9.962;2023-06-10T12:27:50;5.23;;;3.43;;
6306;SDS011;3186;54.062;9.962;2023-06-10T12:30:18;6.93;;;3.33;;
6306;SDS011;3186;54.062;9.962;2023-06-10T12:32:46;10.47;;;3.70;;
6306;SDS011;3186;54.062;9.962;2023-06-10T12:35:13;6.23;;;3.83;;
6306;SDS011;3186;54.062;9.962;2023-06-10T12:37:43;6.33;;;3.40;;
6306;SDS011;3186;54.062;9.962;2023-06-10T12:42:58;7.43;;;3.50;;
6306;SDS011;3186;54.062;9.962;2023-06-10T12:48:43;10.17;;;4.07;;
6306;SDS011;3186;54.062;9.962;2023-06-10T12:50:43;7.13;;;3.33;;
6306;SDS011;3186;54.062;9.962;2023-06-10T12:53:11;12.50;;;3.60;;
6306;SDS011;3186;54.062;9.962;2023-06-10T12:55:37;7.63;;;3.60;;
6306;SDS011;3186;54.062;9.962;2023-06-10T12:58:03;7.40;;;3.27;;
6306;SDS011;3186;54.062;9.962;2023-06-10T13:00:29;6.77;;;3.50;;
6306;SDS011;3186;54.062;9.962;2023-06-10T13:02:56;5.07;;;3.30;;
6306;SDS011;3186;54.062;9.962;2023-06-10T13:05:22;13.10;;;3.83;;
6306;SDS011;3186;54.062;9.962;2023-06-10T13:07:48;9.37;;;3.57;;
6306;SDS011;3186;54.062;9.962;2023-06-10T13:10:14;6.93;;;3.30;;
6306;SDS011;3186;54.062;9.962;2023-06-10T13:12:44;6.60;;;3.40;;
6306;SDS011;3186;54.062;9.962;2023-06-10T13:15:11;5.73;;;3.33;;
6306;SDS011;3186;54.062;9.962;2023-06-10T13:17:37;6.07;;;2.87;;
6306;SDS011;3186;54.062;9.962;2023-06-10T13:20:04;10.23;;;3.17;;
6306;SDS011;3186;54.062;9.962;2023-06-10T13:22:31;7.90;;;3.57;;
6306;SDS011;3186;54.062;9.962;2023-06-10T13:24:58;8.30;;;3.30;;
6306;SDS011;3186;54.062;9.962;2023-06-10T13:27:24;8.60;;;3.30;;
6306;SDS011;3186;54.062;9.962;2023-06-10T13:29:50;5.13;;;3.60;;
6306;SDS011;3186;54.062;9.962;2023-06-10T13:32:16;5.90;;;3.40;;
6306;SDS011;3186;54.062;9.962;2023-06-10T13:34:42;5.40;;;3.50;;
6306;SDS011;3186;54.062;9.962;2023-06-10T13:37:08;6.93;;;3.47;;
6306;SDS011;3186;54.062;9.962;2023-06-10T13:39:33;10.13;;;3.43;;
6306;SDS011;3186;54.062;9.962;2023-06-10T13:41:59;11.87;;;3.20;;
6306;SDS011;3186;54.062;9.962;2023-06-10T13:44:25;6.13;;;3.17;;
6306;SDS011;3186;54.062;9.962;2023-06-10T13:46:51;5.90;;;3.40;;
6306;SDS011;3186;54.062;9.962;2023-06-10T13:49:16;10.23;;;3.77;;
6306;SDS011;3186;54.062;9.962;2023-06-10T13:51:42;7.20;;;3.60;;
6306;SDS011;3186;54.062;9.962;2023-06-10T13:54:09;5.33;;;3.20;;
6306;SDS011;3186;54.062;9.962;2023-06-10T13:56:42;8.13;;;3.20;;
6306;SDS011;3186;54.062;9.962;2023-06-10T13:59:08;8.13;;;3.33;;
6306;SDS011;3186;54.062;9.962;2023-06-10T14:01:34;9.40;;;3.60;;
6306;SDS011;3186;54.062;9.962;2023-06-10T14:04:00;6.50;;;3.17;;
6306;SDS011;3186;54.062;9.962;2023-06-10T14:06:26;9.13;;;3.70;;
6306;SDS011;3186;54.062;9.962;2023-06-10T14:08:52;9.03;;;3.40;;
6306;SDS011;3186;54.062;9.962;2023-06-10T14:11:20;8.27;;;3.63;;
6306;SDS011;3186;54.062;9.962;2023-06-10T14:13:46;6.43;;;3.27;;
6306;SDS011;3186;54.062;9.962;2023-06-10T14:16:12;8.57;;;3.40;;
6306;SDS011;3186;54.062;9.962;2023-06-10T14:18:38;8.93;;;3.60;;
6306;SDS011;3186;54.062;9.962;2023-06-10T14:21:04;6.27;;;3.23;;
6306;SDS011;3186;54.062;9.962;2023-06-10T14:23:30;8.67;;;3.50;;
6306;SDS011;3186;54.062;9.962;2023-06-10T14:25:55;7.80;;;3.30;;
6306;SDS011;3186;54.062;9.962;2023-06-10T14:28:21;5.03;;;3.30;;
6306;SDS011;3186;54.062;9.962;2023-06-10T14:30:49;7.03;;;3.63;;
6306;SDS011;3186;54.062;9.962;2023-06-10T14:33:15;10.50;;;3.40;;
6306;SDS011;3186;54.062;9.962;2023-06-10T14:35:41;8.83;;;3.57;;
6306;SDS011;3186;54.062;9.962;2023-06-10T14:38:08;9.93;;;3.53;;
6306;SDS011;3186;54.062;9.962;2023-06-10T14:40:34;9.13;;;3.40;;
6306;SDS011;3186;54.062;9.962;2023-06-10T14:42:59;6.17;;;3.07;;
6306;SDS011;3186;54.062;9.962;2023-06-10T14:45:26;6.67;;;3.47;;
6306;SDS011;3186;54.062;9.962;2023-06-10T14:47:52;6.80;;;3.40;;
6306;SDS011;3186;54.062;9.962;2023-06-10T14:50:18;7.00;;;3.10;;
6306;SDS011;3186;54.062;9.962;2023-06-10T14:52:44;6.47;;;3.37;;
6306;SDS011;3186;54.062;9.962;2023-06-10T14:55:09;7.03;;;3.40;;
6306;SDS011;3186;54.062;9.962;2023-06-10T14:57:35;6.63;;;3.47;;
6306;SDS011;3186;54.062;9.962;2023-06-10T15:00:01;8.53;;;3.17;;
6306;SDS011;3186;54.062;9.962;2023-06-10T15:02:27;8.03;;;3.30;;
6306;SDS011;3186;54.062;9.962;2023-06-10T15:04:53;6.50;;;3.40;;
6306;SDS011;3186;54.062;9.962;2023-06-10T15:07:18;8.30;;;3.30;;
6306;SDS011;3186;54.062;9.962;2023-06-10T15:09:44;8.17;;;3.83;;
6306;SDS011;3186;54.062;9.962;2023-06-10T15:12:10;7.87;;;3.70;;
6306;SDS011;3186;54.062;9.962;2023-06-10T15:14:36;10.83;;;3.90;;
6306;SDS011;3186;54.062;9.962;2023-06-10T15:17:02;7.90;;;3.63;;
6306;SDS011;3186;54.062;9.962;2023-06-10T15:19:28;11.57;;;3.40;;
6306;SDS011;3186;54.062;9.962;2023-06-10T15:21:54;10.30;;;3.70;;
6306;SDS011;3186;54.062;9.962;2023-06-10T15:24:20;11.70;;;3.70;;
6306;SDS011;3186;54.062;9.962;2023-06-10T15:26:45;7.77;;;3.67;;
6306;SDS011;3186;54.062;9.962;2023-06-10T15:29:11;7.30;;;3.57;;
6306;SDS011;3186;54.062;9.962;2023-06-10T15:31:37;7.63;;;4.00;;
6306;SDS011;3186;54.062;9.962;2023-06-10T15:34:04;6.43;;;3.50;;
6306;SDS011;3186;54.062;9.962;2023-06-10T15:36:32;10.30;;;3.57;;
6306;SDS011;3186;54.062;9.962;2023-06-10T15:39:00;7.13;;;3.57;;
6306;SDS011;3186;54.062;9.962;2023-06-10T15:41:28;6.13;;;3.57;;
6306;SDS011;3186;54.062;9.962;2023-06-10T15:43:54;9.57;;;3.80;;
6306;SDS011;3186;54.062;9.962;2023-06-10T15:46:20;6.07;;;3.33;;
6306;SDS011;3186;54.062;9.962;2023-06-10T15:48:46;11.33;;;3.47;;
6306;SDS011;3186;54.062;9.962;2023-06-10T15:51:12;8.70;;;3.60;;
6306;SDS011;3186;54.062;9.962;2023-06-10T15:53:38;9.17;;;3.53;;
6306;SDS011;3186;54.062;9.962;2023-06-10T15:56:03;8.53;;;3.67;;
6306;SDS011;3186;54.062;9.962;2023-06-10T15:58:29;8.47;;;3.50;;